sensor_id;sensor_type;location;lat;lon;timestamp;P1;durP1;ratioP1;P2;durP2;ratioP2
54909;SDS011;40808;51.240;9.964;2022-08-24T00:00:13;3.05;;;1.75;;
54909;SDS011;40808;51.240;9.964;2022-08-24T00:02:42;4.60;;;1.92;;
54909;SDS011;40808;51.240;9.964;2022-08-24T00:05:08;3.35;;;1.77;;
54909;SDS011;40808;51.240;9.964;2022-08-24T00:07:34;4.85;;;1.90;;
54909;SDS011;40808;51.240;9.964;2022-08-24T00:10:00;2.50;;;1.77;;
54909;SDS011;40808;51.240;9.964;2022-08-24T00:12:26;6.10;;;1.92;;
54909;SDS011;40808;51.240;9.964;2022-08-24T00:14:52;3.97;;;2.13;;
54909;SDS011;40808;51.240;9.964;2022-08-24T00:17:18;2.17;;;1.75;;
54909;SDS011;40808;51.240;9.964;2022-08-24T00:19:45;5.18;;;1.80;;
54909;SDS011;40808;51.240;9.964;2022-08-24T00:22:10;3.92;;;1.60;;
54909;SDS011;40808;51.240;9.964;2022-08-24T00:24:36;4.43;;;1.95;;
54909;SDS011;40808;51.240;9.964;2022-08-24T00:27:01;1.80;;;1.63;;
54909;SDS011;40808;51.240;9.964;2022-08-24T00:29:27;5.05;;;2.10;;
54909;SDS011;40808;51.240;9.964;2022-08-24T00:31:53;2.08;;;1.80;;
54909;SDS011;40808;51.240;9.964;2022-08-24T00:34:18;2.50;;;1.60;;
54909;SDS011;40808;51.240;9.964;2022-08-24T00:36:44;3.20;;;1.70;;
54909;SDS011;40808;51.240;9.964;2022-08-24T00:39:11;2.47;;;1.63;;
54909;SDS011;40808;51.240;9.964;2022-08-24T00:41:41;4.43;;;2.30;;
54909;SDS011;40808;51.240;9.964;2022-08-24T00:44:08;4.20;;;2.05;;
54909;SDS011;40808;51.240;9.964;2022-08-24T00:47:18;2.72;;;2.17;;
54909;SDS011;40808;51.240;9.964;2022-08-24T00:49:38;2.15;;;1.70;;
54909;SDS011;40808;51.240;9.964;2022-08-24T00:52:12;2.25;;;1.70;;
54909;SDS011;40808;51.240;9.964;2022-08-24T00:54:44;2.22;;;1.80;;
54909;SDS011;40808;51.240;9.964;2022-08-24T00:57:14;2.95;;;1.85;;
54909;SDS011;40808;51.240;9.964;2022-08-24T00:59:43;3.67;;;1.92;;
54909;SDS011;40808;51.240;9.964;2022-08-24T01:02:15;5.38;;;2.08;;
54909;SDS011;40808;51.240;9.964;2022-08-24T01:04:48;3.45;;;2.10;;
54909;SDS011;40808;51.240;9.964;2022-08-24T01:07:23;3.40;;;2.05;;
54909;SDS011;40808;51.240;9.964;2022-08-24T01:09:51;2.70;;;1.70;;
54909;SDS011;40808;51.240;9.964;2022-08-24T01:12:17;4.03;;;2.00;;
54909;SDS011;40808;51.240;9.964;2022-08-24T01:14:43;4.97;;;2.08;;
54909;SDS011;40808;51.240;9.964;2022-08-24T01:17:09;3.65;;;1.80;;
54909;SDS011;40808;51.240;9.964;2022-08-24T01:19:54;3.85;;;2.20;;
54909;SDS011;40808;51.240;9.964;2022-08-24T01:25:10;4.03;;;2.05;;
54909;SDS011;40808;51.240;9.964;2022-08-24T01:27:36;3.95;;;2.05;;
54909;SDS011;40808;51.240;9.964;2022-08-24T01:30:04;4.15;;;1.88;;
54909;SDS011;40808;51.240;9.964;2022-08-24T01:32:33;3.58;;;2.15;;
54909;SDS011;40808;51.240;9.964;2022-08-24T01:34:58;2.60;;;2.00;;
54909;SDS011;40808;51.240;9.964;2022-08-24T01:37:24;4.22;;;2.25;;
54909;SDS011;40808;51.240;9.964;2022-08-24T01:39:50;2.67;;;2.00;;
54909;SDS011;40808;51.240;9.964;2022-08-24T01:42:19;2.53;;;1.70;;
54909;SDS011;40808;51.240;9.964;2022-08-24T01:44:44;3.42;;;2.28;;
54909;SDS011;40808;51.240;9.964;2022-08-24T01:47:11;5.00;;;1.90;;
54909;SDS011;40808;51.240;9.964;2022-08-24T01:49:39;2.75;;;2.03;;
54909;SDS011;40808;51.240;9.964;2022-08-24T01:52:08;3.22;;;1.92;;
54909;SDS011;40808;51.240;9.964;2022-08-24T01:54:36;5.13;;;2.13;;
54909;SDS011;40808;51.240;9.964;2022-08-24T01:57:03;4.35;;;2.10;;
54909;SDS011;40808;51.240;9.964;2022-08-24T01:59:29;2.90;;;1.98;;
54909;SDS011;40808;51.240;9.964;2022-08-24T02:01:58;2.72;;;1.95;;
54909;SDS011;40808;51.240;9.964;2022-08-24T02:04:28;3.47;;;1.95;;
54909;SDS011;40808;51.240;9.964;2022-08-24T02:06:53;4.60;;;2.22;;
54909;SDS011;40808;51.240;9.964;2022-08-24T02:09:19;2.17;;;1.95;;
54909;SDS011;40808;51.240;9.964;2022-08-24T02:11:44;4.13;;;2.40;;
54909;SDS011;40808;51.240;9.964;2022-08-24T02:14:12;3.35;;;2.20;;
54909;SDS011;40808;51.240;9.964;2022-08-24T02:16:37;4.93;;;1.98;;
54909;SDS011;40808;51.240;9.964;2022-08-24T02:19:03;4.93;;;2.40;;
54909;SDS011;40808;51.240;9.964;2022-08-24T02:21:29;3.40;;;2.25;;
54909;SDS011;40808;51.240;9.964;2022-08-24T02:23:54;3.88;;;1.90;;
54909;SDS011;40808;51.240;9.964;2022-08-24T02:26:20;3.83;;;2.42;;
54909;SDS011;40808;51.240;9.964;2022-08-24T02:28:45;5.38;;;2.22;;
54909;SDS011;40808;51.240;9.964;2022-08-24T02:31:11;4.15;;;2.10;;
54909;SDS011;40808;51.240;9.964;2022-08-24T02:33:38;2.38;;;2.10;;
54909;SDS011;40808;51.240;9.964;2022-08-24T02:36:05;2.45;;;1.90;;
54909;SDS011;40808;51.240;9.964;2022-08-24T02:38:31;2.85;;;2.33;;
54909;SDS011;40808;51.240;9.964;2022-08-24T02:40:57;3.95;;;2.00;;
54909;SDS011;40808;51.240;9.964;2022-08-24T02:43:23;2.90;;;2.10;;
54909;SDS011;40808;51.240;9.964;2022-08-24T02:45:49;4.60;;;2.08;;
54909;SDS011;40808;51.240;9.964;2022-08-24T02:48:16;3.15;;;2.20;;
54909;SDS011;40808;51.240;9.964;2022-08-24T02:50:43;2.83;;;2.10;;
54909;SDS011;40808;51.240;9.964;2022-08-24T02:53:12;3.72;;;2.55;;
54909;SDS011;40808;51.240;9.964;2022-08-24T02:55:39;2.53;;;1.90;;
54909;SDS011;40808;51.240;9.964;2022-08-24T02:58:06;5.25;;;2.50;;
54909;SDS011;40808;51.240;9.964;2022-08-24T03:00:33;3.55;;;2.55;;
54909;SDS011;40808;51.240;9.964;2022-08-24T03:03:00;4.97;;;2.40;;
54909;SDS011;40808;51.240;9.964;2022-08-24T03:05:26;3.15;;;2.30;;
54909;SDS011;40808;51.240;9.964;2022-08-24T03:07:52;3.35;;;2.50;;
54909;SDS011;40808;51.240;9.964;2022-08-24T03:10:17;3.95;;;2.13;;
54909;SDS011;40808;51.240;9.964;2022-08-24T03:12:43;5.80;;;2.47;;
54909;SDS011;40808;51.240;9.964;2022-08-24T03:15:09;5.53;;;2.40;;
54909;SDS011;40808;51.240;9.964;2022-08-24T03:17:35;5.30;;;2.90;;
54909;SDS011;40808;51.240;9.964;2022-08-24T03:20:02;3.65;;;2.42;;
54909;SDS011;40808;51.240;9.964;2022-08-24T03:22:30;4.45;;;2.45;;
54909;SDS011;40808;51.240;9.964;2022-08-24T03:24:55;4.80;;;2.63;;
54909;SDS011;40808;51.240;9.964;2022-08-24T03:27:20;3.97;;;2.78;;
54909;SDS011;40808;51.240;9.964;2022-08-24T03:29:46;4.60;;;2.47;;
54909;SDS011;40808;51.240;9.964;2022-08-24T03:32:11;6.63;;;2.80;;
54909;SDS011;40808;51.240;9.964;2022-08-24T03:34:37;4.00;;;2.33;;
54909;SDS011;40808;51.240;9.964;2022-08-24T03:37:02;2.30;;;2.00;;
54909;SDS011;40808;51.240;9.964;2022-08-24T03:39:28;5.45;;;2.95;;
54909;SDS011;40808;51.240;9.964;2022-08-24T03:41:53;4.93;;;3.00;;
54909;SDS011;40808;51.240;9.964;2022-08-24T03:44:19;5.88;;;2.88;;
54909;SDS011;40808;51.240;9.964;2022-08-24T03:46:44;7.15;;;2.70;;
54909;SDS011;40808;51.240;9.964;2022-08-24T03:49:10;4.72;;;2.58;;
54909;SDS011;40808;51.240;9.964;2022-08-24T03:51:37;4.28;;;2.60;;
54909;SDS011;40808;51.240;9.964;2022-08-24T03:54:04;3.97;;;2.70;;
54909;SDS011;40808;51.240;9.964;2022-08-24T03:56:31;4.53;;;2.95;;
54909;SDS011;40808;51.240;9.964;2022-08-24T03:58:56;2.72;;;2.22;;
54909;SDS011;40808;51.240;9.964;2022-08-24T04:01:22;4.45;;;2.70;;
54909;SDS011;40808;51.240;9.964;2022-08-24T04:03:47;5.45;;;2.80;;
54909;SDS011;40808;51.240;9.964;2022-08-24T04:06:15;4.18;;;2.33;;
54909;SDS011;40808;51.240;9.964;2022-08-24T04:08:42;5.38;;;2.80;;
54909;SDS011;40808;51.240;9.964;2022-08-24T04:11:11;8.05;;;3.08;;
54909;SDS011;40808;51.240;9.964;2022-08-24T04:13:39;3.83;;;2.55;;
54909;SDS011;40808;51.240;9.964;2022-08-24T04:16:09;4.22;;;2.50;;
54909;SDS011;40808;51.240;9.964;2022-08-24T04:18:37;3.42;;;2.70;;
54909;SDS011;40808;51.240;9.964;2022-08-24T04:21:04;4.25;;;2.90;;
54909;SDS011;40808;51.240;9.964;2022-08-24T04:23:30;5.45;;;2.70;;
54909;SDS011;40808;51.240;9.964;2022-08-24T04:25:55;4.40;;;2.85;;
54909;SDS011;40808;51.240;9.964;2022-08-24T04:28:28;3.17;;;2.40;;
54909;SDS011;40808;51.240;9.964;2022-08-24T04:30:54;3.67;;;3.00;;
54909;SDS011;40808;51.240;9.964;2022-08-24T04:33:21;3.45;;;2.60;;
54909;SDS011;40808;51.240;9.964;2022-08-24T04:35:47;4.20;;;2.80;;
54909;SDS011;40808;51.240;9.964;2022-08-24T04:38:14;3.30;;;2.88;;
54909;SDS011;40808;51.240;9.964;2022-08-24T04:40:41;4.32;;;3.00;;
54909;SDS011;40808;51.240;9.964;2022-08-24T04:43:08;4.53;;;3.00;;
54909;SDS011;40808;51.240;9.964;2022-08-24T04:45:38;3.55;;;2.80;;
54909;SDS011;40808;51.240;9.964;2022-08-24T04:48:04;4.70;;;2.97;;
54909;SDS011;40808;51.240;9.964;2022-08-24T04:50:30;6.85;;;2.83;;
54909;SDS011;40808;51.240;9.964;2022-08-24T04:52:59;3.53;;;2.67;;
54909;SDS011;40808;51.240;9.964;2022-08-24T04:55:24;3.33;;;2.65;;
54909;SDS011;40808;51.240;9.964;2022-08-24T04:57:50;4.80;;;2.65;;
54909;SDS011;40808;51.240;9.964;2022-08-24T05:00:19;4.00;;;2.72;;
54909;SDS011;40808;51.240;9.964;2022-08-24T05:02:50;3.30;;;2.75;;
54909;SDS011;40808;51.240;9.964;2022-08-24T05:05:20;4.53;;;2.50;;
54909;SDS011;40808;51.240;9.964;2022-08-24T05:07:53;4.45;;;2.83;;
54909;SDS011;40808;51.240;9.964;2022-08-24T05:10:26;6.05;;;3.10;;
54909;SDS011;40808;51.240;9.964;2022-08-24T05:13:00;3.88;;;2.63;;
54909;SDS011;40808;51.240;9.964;2022-08-24T05:15:39;3.60;;;3.17;;
54909;SDS011;40808;51.240;9.964;2022-08-24T05:18:15;5.00;;;2.97;;
54909;SDS011;40808;51.240;9.964;2022-08-24T05:20:47;4.05;;;3.30;;
54909;SDS011;40808;51.240;9.964;2022-08-24T05:23:13;3.40;;;3.08;;
54909;SDS011;40808;51.240;9.964;2022-08-24T05:25:38;4.00;;;2.75;;
54909;SDS011;40808;51.240;9.964;2022-08-24T05:28:04;4.50;;;2.80;;
54909;SDS011;40808;51.240;9.964;2022-08-24T05:30:30;4.57;;;2.80;;
54909;SDS011;40808;51.240;9.964;2022-08-24T05:32:55;5.72;;;2.70;;
54909;SDS011;40808;51.240;9.964;2022-08-24T05:35:21;5.88;;;2.90;;
54909;SDS011;40808;51.240;9.964;2022-08-24T05:37:46;6.03;;;3.22;;
54909;SDS011;40808;51.240;9.964;2022-08-24T05:40:12;4.50;;;2.75;;
54909;SDS011;40808;51.240;9.964;2022-08-24T05:42:39;4.18;;;3.00;;
54909;SDS011;40808;51.240;9.964;2022-08-24T05:45:05;8.55;;;2.90;;
54909;SDS011;40808;51.240;9.964;2022-08-24T05:47:31;4.70;;;2.75;;
54909;SDS011;40808;51.240;9.964;2022-08-24T05:49:58;4.35;;;2.80;;
54909;SDS011;40808;51.240;9.964;2022-08-24T05:52:24;3.88;;;2.90;;
54909;SDS011;40808;51.240;9.964;2022-08-24T05:54:54;4.35;;;2.80;;
54909;SDS011;40808;51.240;9.964;2022-08-24T05:57:21;4.13;;;2.72;;
54909;SDS011;40808;51.240;9.964;2022-08-24T05:59:48;3.55;;;2.72;;
54909;SDS011;40808;51.240;9.964;2022-08-24T06:02:14;4.05;;;2.55;;
54909;SDS011;40808;51.240;9.964;2022-08-24T06:04:40;3.75;;;2.47;;
54909;SDS011;40808;51.240;9.964;2022-08-24T06:07:06;3.13;;;2.45;;
54909;SDS011;40808;51.240;9.964;2022-08-24T06:09:35;4.00;;;2.58;;
54909;SDS011;40808;51.240;9.964;2022-08-24T06:12:02;4.35;;;2.78;;
54909;SDS011;40808;51.240;9.964;2022-08-24T06:14:27;4.65;;;2.47;;
54909;SDS011;40808;51.240;9.964;2022-08-24T06:16:52;5.05;;;2.60;;
54909;SDS011;40808;51.240;9.964;2022-08-24T06:19:18;4.50;;;2.55;;
54909;SDS011;40808;51.240;9.964;2022-08-24T06:21:45;4.43;;;2.55;;
54909;SDS011;40808;51.240;9.964;2022-08-24T06:24:12;5.53;;;2.53;;
54909;SDS011;40808;51.240;9.964;2022-08-24T06:26:42;3.13;;;2.47;;
54909;SDS011;40808;51.240;9.964;2022-08-24T06:29:26;3.53;;;2.13;;
54909;SDS011;40808;51.240;9.964;2022-08-24T06:31:51;3.33;;;2.17;;
54909;SDS011;40808;51.240;9.964;2022-08-24T06:34:18;5.30;;;2.30;;
54909;SDS011;40808;51.240;9.964;2022-08-24T06:36:43;4.68;;;2.40;;
54909;SDS011;40808;51.240;9.964;2022-08-24T06:39:10;2.88;;;2.10;;
54909;SDS011;40808;51.240;9.964;2022-08-24T06:41:36;5.95;;;2.63;;
54909;SDS011;40808;51.240;9.964;2022-08-24T06:44:02;2.35;;;2.13;;
54909;SDS011;40808;51.240;9.964;2022-08-24T06:46:27;5.60;;;2.28;;
54909;SDS011;40808;51.240;9.964;2022-08-24T06:48:53;4.72;;;2.40;;
54909;SDS011;40808;51.240;9.964;2022-08-24T06:51:19;4.68;;;2.40;;
54909;SDS011;40808;51.240;9.964;2022-08-24T06:53:46;4.35;;;2.60;;
54909;SDS011;40808;51.240;9.964;2022-08-24T06:56:12;2.78;;;1.90;;
54909;SDS011;40808;51.240;9.964;2022-08-24T06:58:38;5.78;;;2.03;;
54909;SDS011;40808;51.240;9.964;2022-08-24T07:01:14;5.25;;;2.60;;
54909;SDS011;40808;51.240;9.964;2022-08-24T07:03:45;5.40;;;2.75;;
54909;SDS011;40808;51.240;9.964;2022-08-24T07:06:10;5.32;;;2.60;;
54909;SDS011;40808;51.240;9.964;2022-08-24T07:08:38;6.43;;;2.42;;
54909;SDS011;40808;51.240;9.964;2022-08-24T07:11:05;4.72;;;2.58;;
54909;SDS011;40808;51.240;9.964;2022-08-24T07:13:32;5.65;;;2.17;;
54909;SDS011;40808;51.240;9.964;2022-08-24T07:15:57;4.20;;;2.38;;
54909;SDS011;40808;51.240;9.964;2022-08-24T07:18:23;4.20;;;2.20;;
54909;SDS011;40808;51.240;9.964;2022-08-24T07:20:48;2.83;;;2.17;;
54909;SDS011;40808;51.240;9.964;2022-08-24T07:23:14;4.28;;;1.95;;
54909;SDS011;40808;51.240;9.964;2022-08-24T07:25:41;3.17;;;2.10;;
54909;SDS011;40808;51.240;9.964;2022-08-24T07:28:07;6.85;;;2.42;;
54909;SDS011;40808;51.240;9.964;2022-08-24T07:30:33;3.92;;;1.85;;
54909;SDS011;40808;51.240;9.964;2022-08-24T07:32:59;4.75;;;2.35;;
54909;SDS011;40808;51.240;9.964;2022-08-24T07:35:25;4.90;;;2.22;;
54909;SDS011;40808;51.240;9.964;2022-08-24T07:37:52;3.65;;;2.10;;
54909;SDS011;40808;51.240;9.964;2022-08-24T07:40:19;4.28;;;2.00;;
54909;SDS011;40808;51.240;9.964;2022-08-24T07:42:49;3.95;;;1.80;;
54909;SDS011;40808;51.240;9.964;2022-08-24T07:45:15;3.03;;;1.80;;
54909;SDS011;40808;51.240;9.964;2022-08-24T07:47:42;4.97;;;2.10;;
54909;SDS011;40808;51.240;9.964;2022-08-24T07:50:09;2.78;;;1.73;;
54909;SDS011;40808;51.240;9.964;2022-08-24T07:52:35;2.90;;;1.60;;
54909;SDS011;40808;51.240;9.964;2022-08-24T07:55:00;3.85;;;2.13;;
54909;SDS011;40808;51.240;9.964;2022-08-24T07:57:26;3.53;;;1.90;;
54909;SDS011;40808;51.240;9.964;2022-08-24T07:59:51;2.20;;;1.70;;
54909;SDS011;40808;51.240;9.964;2022-08-24T08:02:17;3.33;;;1.90;;
54909;SDS011;40808;51.240;9.964;2022-08-24T08:04:42;2.50;;;1.73;;
54909;SDS011;40808;51.240;9.964;2022-08-24T08:07:07;5.85;;;2.00;;
54909;SDS011;40808;51.240;9.964;2022-08-24T08:09:37;4.38;;;1.75;;
54909;SDS011;40808;51.240;9.964;2022-08-24T08:12:02;4.38;;;1.70;;
54909;SDS011;40808;51.240;9.964;2022-08-24T08:14:28;4.05;;;1.70;;
54909;SDS011;40808;51.240;9.964;2022-08-24T08:16:53;3.60;;;1.70;;
54909;SDS011;40808;51.240;9.964;2022-08-24T08:19:19;3.55;;;1.40;;
54909;SDS011;40808;51.240;9.964;2022-08-24T08:21:45;4.75;;;2.00;;
54909;SDS011;40808;51.240;9.964;2022-08-24T08:24:31;4.03;;;1.85;;
54909;SDS011;40808;51.240;9.964;2022-08-24T08:26:57;4.82;;;1.38;;
54909;SDS011;40808;51.240;9.964;2022-08-24T08:29:23;2.58;;;1.73;;
54909;SDS011;40808;51.240;9.964;2022-08-24T08:31:50;2.85;;;1.77;;
54909;SDS011;40808;51.240;9.964;2022-08-24T08:34:16;3.67;;;1.65;;
54909;SDS011;40808;51.240;9.964;2022-08-24T08:36:42;3.55;;;1.70;;
54909;SDS011;40808;51.240;9.964;2022-08-24T08:39:09;2.78;;;1.60;;
54909;SDS011;40808;51.240;9.964;2022-08-24T08:58:52;6.05;;;1.80;;
54909;SDS011;40808;51.240;9.964;2022-08-24T09:04:22;3.03;;;1.92;;
54909;SDS011;40808;51.240;9.964;2022-08-24T09:07:09;3.25;;;1.60;;
54909;SDS011;40808;51.240;9.964;2022-08-24T09:26:19;4.07;;;1.60;;
54909;SDS011;40808;51.240;9.964;2022-08-24T09:32:13;4.75;;;1.55;;
54909;SDS011;40808;51.240;9.964;2022-08-24T09:35:03;2.35;;;1.70;;
54909;SDS011;40808;51.240;9.964;2022-08-24T09:37:34;7.97;;;1.83;;
54909;SDS011;40808;51.240;9.964;2022-08-24T09:42:58;3.38;;;1.70;;
54909;SDS011;40808;51.240;9.964;2022-08-24T09:50:40;4.15;;;1.67;;
54909;SDS011;40808;51.240;9.964;2022-08-24T10:01:25;6.05;;;1.70;;
54909;SDS011;40808;51.240;9.964;2022-08-24T10:04:03;2.80;;;1.65;;
54909;SDS011;40808;51.240;9.964;2022-08-24T10:11:55;7.43;;;2.00;;
54909;SDS011;40808;51.240;9.964;2022-08-24T10:17:09;3.05;;;1.55;;
54909;SDS011;40808;51.240;9.964;2022-08-24T10:33:21;5.30;;;1.48;;
54909;SDS011;40808;51.240;9.964;2022-08-24T10:44:29;1.75;;;1.30;;
54909;SDS011;40808;51.240;9.964;2022-08-24T10:47:11;2.75;;;1.13;;
54909;SDS011;40808;51.240;9.964;2022-08-24T10:55:31;2.80;;;1.30;;
54909;SDS011;40808;51.240;9.964;2022-08-24T11:00:34;4.80;;;1.20;;
54909;SDS011;40808;51.240;9.964;2022-08-24T11:03:08;3.30;;;1.40;;
54909;SDS011;40808;51.240;9.964;2022-08-24T11:05:46;3.70;;;1.08;;
54909;SDS011;40808;51.240;9.964;2022-08-24T11:08:19;3.20;;;1.40;;
54909;SDS011;40808;51.240;9.964;2022-08-24T11:10:45;2.60;;;1.20;;
54909;SDS011;40808;51.240;9.964;2022-08-24T11:13:26;3.47;;;1.27;;
54909;SDS011;40808;51.240;9.964;2022-08-24T11:15:53;5.00;;;1.20;;
54909;SDS011;40808;51.240;9.964;2022-08-24T11:18:20;4.22;;;1.48;;
54909;SDS011;40808;51.240;9.964;2022-08-24T11:20:48;3.33;;;1.20;;
54909;SDS011;40808;51.240;9.964;2022-08-24T11:23:22;2.22;;;1.38;;
54909;SDS011;40808;51.240;9.964;2022-08-24T11:28:35;2.35;;;1.30;;
54909;SDS011;40808;51.240;9.964;2022-08-24T11:31:07;2.72;;;1.40;;
54909;SDS011;40808;51.240;9.964;2022-08-24T11:33:47;2.35;;;1.30;;
54909;SDS011;40808;51.240;9.964;2022-08-24T11:36:18;3.65;;;1.30;;
54909;SDS011;40808;51.240;9.964;2022-08-24T11:38:49;5.63;;;1.45;;
54909;SDS011;40808;51.240;9.964;2022-08-24T11:41:40;2.42;;;1.38;;
54909;SDS011;40808;51.240;9.964;2022-08-24T11:44:25;2.72;;;1.20;;
54909;SDS011;40808;51.240;9.964;2022-08-24T11:47:28;6.65;;;1.35;;
54909;SDS011;40808;51.240;9.964;2022-08-24T11:50:34;4.38;;;1.70;;
54909;SDS011;40808;51.240;9.964;2022-08-24T11:53:20;5.18;;;1.70;;
54909;SDS011;40808;51.240;9.964;2022-08-24T11:58:48;3.67;;;1.15;;
54909;SDS011;40808;51.240;9.964;2022-08-24T12:06:49;2.90;;;1.27;;
54909;SDS011;40808;51.240;9.964;2022-08-24T12:14:48;3.42;;;1.73;;
54909;SDS011;40808;51.240;9.964;2022-08-24T12:20:13;3.90;;;1.15;;
54909;SDS011;40808;51.240;9.964;2022-08-24T12:22:50;2.05;;;1.20;;
54909;SDS011;40808;51.240;9.964;2022-08-24T12:25:18;4.95;;;1.42;;
54909;SDS011;40808;51.240;9.964;2022-08-24T12:28:03;1.80;;;1.13;;
54909;SDS011;40808;51.240;9.964;2022-08-24T12:30:29;5.03;;;1.42;;
54909;SDS011;40808;51.240;9.964;2022-08-24T12:32:56;1.98;;;1.27;;
54909;SDS011;40808;51.240;9.964;2022-08-24T12:35:29;4.00;;;1.20;;
54909;SDS011;40808;51.240;9.964;2022-08-24T12:40:47;3.78;;;1.60;;
54909;SDS011;40808;51.240;9.964;2022-08-24T12:43:34;8.45;;;1.30;;
54909;SDS011;40808;51.240;9.964;2022-08-24T12:46:05;2.95;;;1.13;;
54909;SDS011;40808;51.240;9.964;2022-08-24T12:48:37;5.00;;;1.88;;
54909;SDS011;40808;51.240;9.964;2022-08-24T13:01:28;3.50;;;1.20;;
54909;SDS011;40808;51.240;9.964;2022-08-24T13:09:41;2.60;;;1.30;;
54909;SDS011;40808;51.240;9.964;2022-08-24T13:13:10;4.30;;;1.60;;
54909;SDS011;40808;51.240;9.964;2022-08-24T13:25:42;1.65;;;1.20;;
54909;SDS011;40808;51.240;9.964;2022-08-24T13:43:34;3.42;;;1.30;;
54909;SDS011;40808;51.240;9.964;2022-08-24T14:05:49;4.15;;;1.50;;
54909;SDS011;40808;51.240;9.964;2022-08-24T14:10:54;4.32;;;1.73;;
54909;SDS011;40808;51.240;9.964;2022-08-24T14:16:04;5.30;;;1.38;;
54909;SDS011;40808;51.240;9.964;2022-08-24T14:19:10;2.53;;;1.20;;
54909;SDS011;40808;51.240;9.964;2022-08-24T14:22:00;5.07;;;1.20;;
54909;SDS011;40808;51.240;9.964;2022-08-24T14:24:40;1.85;;;1.23;;
54909;SDS011;40808;51.240;9.964;2022-08-24T14:38:21;4.07;;;1.75;;
54909;SDS011;40808;51.240;9.964;2022-08-24T14:41:04;4.97;;;1.98;;
54909;SDS011;40808;51.240;9.964;2022-08-24T14:57:23;3.60;;;1.50;;
54909;SDS011;40808;51.240;9.964;2022-08-24T15:00:08;9.32;;;1.90;;
54909;SDS011;40808;51.240;9.964;2022-08-24T15:13:12;6.68;;;1.50;;
54909;SDS011;40808;51.240;9.964;2022-08-24T15:18:31;4.43;;;1.30;;
54909;SDS011;40808;51.240;9.964;2022-08-24T15:29:01;4.03;;;1.25;;
54909;SDS011;40808;51.240;9.964;2022-08-24T15:32:05;2.75;;;1.30;;
54909;SDS011;40808;51.240;9.964;2022-08-24T15:37:07;4.05;;;1.17;;
54909;SDS011;40808;51.240;9.964;2022-08-24T15:39:33;6.25;;;1.50;;
54909;SDS011;40808;51.240;9.964;2022-08-24T15:41:58;4.20;;;1.50;;
54909;SDS011;40808;51.240;9.964;2022-08-24T15:44:31;3.17;;;1.33;;
54909;SDS011;40808;51.240;9.964;2022-08-24T15:46:59;2.03;;;1.20;;
54909;SDS011;40808;51.240;9.964;2022-08-24T15:49:35;2.50;;;1.05;;
54909;SDS011;40808;51.240;9.964;2022-08-24T15:54:57;2.85;;;1.30;;
54909;SDS011;40808;51.240;9.964;2022-08-24T15:57:26;3.38;;;1.02;;
54909;SDS011;40808;51.240;9.964;2022-08-24T16:00:17;1.65;;;1.10;;
54909;SDS011;40808;51.240;9.964;2022-08-24T16:03:23;6.68;;;1.48;;
54909;SDS011;40808;51.240;9.964;2022-08-24T16:05:51;2.67;;;1.20;;
54909;SDS011;40808;51.240;9.964;2022-08-24T16:08:19;4.20;;;1.35;;
54909;SDS011;40808;51.240;9.964;2022-08-24T16:10:47;4.40;;;1.23;;
54909;SDS011;40808;51.240;9.964;2022-08-24T16:15:47;3.40;;;1.50;;
54909;SDS011;40808;51.240;9.964;2022-08-24T16:18:16;5.22;;;1.58;;
54909;SDS011;40808;51.240;9.964;2022-08-24T16:20:43;4.32;;;1.45;;
54909;SDS011;40808;51.240;9.964;2022-08-24T16:23:11;5.00;;;1.55;;
54909;SDS011;40808;51.240;9.964;2022-08-24T16:28:52;4.95;;;1.40;;
54909;SDS011;40808;51.240;9.964;2022-08-24T16:34:19;6.60;;;1.55;;
54909;SDS011;40808;51.240;9.964;2022-08-24T16:36:52;3.78;;;1.20;;
54909;SDS011;40808;51.240;9.964;2022-08-24T16:39:18;3.47;;;1.27;;
54909;SDS011;40808;51.240;9.964;2022-08-24T16:41:43;2.40;;;1.13;;
54909;SDS011;40808;51.240;9.964;2022-08-24T16:44:09;4.78;;;1.70;;
54909;SDS011;40808;51.240;9.964;2022-08-24T16:46:36;5.55;;;1.65;;
54909;SDS011;40808;51.240;9.964;2022-08-24T16:49:02;2.83;;;1.35;;
54909;SDS011;40808;51.240;9.964;2022-08-24T16:51:28;2.83;;;1.40;;
54909;SDS011;40808;51.240;9.964;2022-08-24T16:53:53;4.40;;;1.60;;
54909;SDS011;40808;51.240;9.964;2022-08-24T16:56:19;2.70;;;1.20;;
54909;SDS011;40808;51.240;9.964;2022-08-24T16:58:45;6.68;;;1.60;;
54909;SDS011;40808;51.240;9.964;2022-08-24T17:01:12;2.72;;;1.13;;
54909;SDS011;40808;51.240;9.964;2022-08-24T17:03:39;5.53;;;1.50;;
54909;SDS011;40808;51.240;9.964;2022-08-24T17:06:04;4.50;;;1.30;;
54909;SDS011;40808;51.240;9.964;2022-08-24T17:08:30;5.30;;;1.40;;
54909;SDS011;40808;51.240;9.964;2022-08-24T17:10:57;2.90;;;1.52;;
54909;SDS011;40808;51.240;9.964;2022-08-24T17:13:22;2.40;;;1.60;;
54909;SDS011;40808;51.240;9.964;2022-08-24T17:15:48;4.57;;;1.20;;
54909;SDS011;40808;51.240;9.964;2022-08-24T17:18:13;2.17;;;1.30;;
54909;SDS011;40808;51.240;9.964;2022-08-24T17:20:43;8.05;;;1.95;;
54909;SDS011;40808;51.240;9.964;2022-08-24T17:23:08;3.13;;;1.40;;
54909;SDS011;40808;51.240;9.964;2022-08-24T17:25:34;5.53;;;1.58;;
54909;SDS011;40808;51.240;9.964;2022-08-24T17:28:03;3.50;;;1.33;;
54909;SDS011;40808;51.240;9.964;2022-08-24T17:30:29;2.45;;;1.70;;
54909;SDS011;40808;51.240;9.964;2022-08-24T17:32:54;4.90;;;1.70;;
54909;SDS011;40808;51.240;9.964;2022-08-24T17:35:20;4.30;;;1.52;;
54909;SDS011;40808;51.240;9.964;2022-08-24T17:37:47;2.70;;;1.50;;
54909;SDS011;40808;51.240;9.964;2022-08-24T17:40:14;2.38;;;1.30;;
54909;SDS011;40808;51.240;9.964;2022-08-24T17:42:41;2.58;;;1.60;;
54909;SDS011;40808;51.240;9.964;2022-08-24T17:45:07;5.10;;;1.70;;
54909;SDS011;40808;51.240;9.964;2022-08-24T17:47:33;6.45;;;1.77;;
54909;SDS011;40808;51.240;9.964;2022-08-24T17:49:59;7.18;;;1.88;;
54909;SDS011;40808;51.240;9.964;2022-08-24T17:52:25;6.05;;;1.55;;
54909;SDS011;40808;51.240;9.964;2022-08-24T17:54:51;4.57;;;1.58;;
54909;SDS011;40808;51.240;9.964;2022-08-24T17:57:17;7.03;;;1.92;;
54909;SDS011;40808;51.240;9.964;2022-08-24T17:59:44;4.68;;;1.67;;
54909;SDS011;40808;51.240;9.964;2022-08-24T18:02:10;2.08;;;1.40;;
54909;SDS011;40808;51.240;9.964;2022-08-24T18:04:36;3.33;;;1.50;;
54909;SDS011;40808;51.240;9.964;2022-08-24T18:07:10;4.25;;;1.70;;
54909;SDS011;40808;51.240;9.964;2022-08-24T18:09:39;2.97;;;1.40;;
54909;SDS011;40808;51.240;9.964;2022-08-24T18:12:10;4.22;;;1.88;;
54909;SDS011;40808;51.240;9.964;2022-08-24T18:14:36;1.88;;;1.35;;
54909;SDS011;40808;51.240;9.964;2022-08-24T18:17:03;3.85;;;1.70;;
54909;SDS011;40808;51.240;9.964;2022-08-24T18:19:31;4.70;;;1.77;;
54909;SDS011;40808;51.240;9.964;2022-08-24T18:21:57;2.55;;;1.40;;
54909;SDS011;40808;51.240;9.964;2022-08-24T18:24:22;3.72;;;2.13;;
54909;SDS011;40808;51.240;9.964;2022-08-24T18:26:49;2.55;;;1.70;;
54909;SDS011;40808;51.240;9.964;2022-08-24T18:29:16;3.30;;;1.88;;
54909;SDS011;40808;51.240;9.964;2022-08-24T18:31:45;4.03;;;1.95;;
54909;SDS011;40808;51.240;9.964;2022-08-24T18:34:14;3.25;;;1.45;;
54909;SDS011;40808;51.240;9.964;2022-08-24T18:36:41;3.70;;;1.80;;
54909;SDS011;40808;51.240;9.964;2022-08-24T18:39:07;5.15;;;1.85;;
54909;SDS011;40808;51.240;9.964;2022-08-24T18:41:33;4.75;;;2.00;;
54909;SDS011;40808;51.240;9.964;2022-08-24T18:44:02;13.27;;;2.20;;
54909;SDS011;40808;51.240;9.964;2022-08-24T18:46:29;2.50;;;1.80;;
54909;SDS011;40808;51.240;9.964;2022-08-24T18:48:55;5.03;;;2.00;;
54909;SDS011;40808;51.240;9.964;2022-08-24T18:51:21;2.83;;;1.73;;
54909;SDS011;40808;51.240;9.964;2022-08-24T18:53:47;4.82;;;2.10;;
54909;SDS011;40808;51.240;9.964;2022-08-24T18:56:13;2.28;;;1.63;;
54909;SDS011;40808;51.240;9.964;2022-08-24T18:58:39;4.70;;;1.67;;
54909;SDS011;40808;51.240;9.964;2022-08-24T19:01:04;2.33;;;1.80;;
54909;SDS011;40808;51.240;9.964;2022-08-24T19:03:30;4.30;;;1.80;;
54909;SDS011;40808;51.240;9.964;2022-08-24T19:06:02;2.70;;;1.70;;